Latest Weather Observations for Warragul (Nilma North)

IDV60801

Issued at 1:03 pm EDT Monday 20 November 2017 (issued every 30 minutes, with the page automatically refreshed every 10 minutes)

About weather observations | Map of weather stations | Latest weather observations for VIC | Other Formats
Station Details ID: 085313 Name: NILMA NORTH (WARRAGUL) Lat: -38.13 Lon: 145.99 Height: 134.11 m
Data from the previous 72 hours. | See also: Recent months for locations in Victoria
Date/Time
EDT
Temp
°C
App
Temp
°C
Dew
Point
°C
Rel
Hum
%
Delta-T
°C
Wind Press
QNH
hPa
Press
MSL
hPa
Rain since
9am
mm
Dir  Spd
km/h
Gust
km/h
Spd
kts
Gust
kts
20/01:00pm 27.1 27.6 15.1 47 7.3 SW 6 15 3 8 1022.5 1022.3 0.0
20/12:30pm 26.7 27.4 16.0 52 6.6 SSW 7 17 4 9 1022.7 1022.5 0.0
20/12:00pm 26.1 27.2 15.5 52 6.4 SSE 4 7 2 4 1022.9 1022.7 0.0
20/11:30am 25.9 27.1 15.9 54 6.1 WSW 4 7 2 4 1023.1 1022.9 0.0
20/11:00am 24.7 25.8 15.6 57 5.5 SW 4 7 2 4 1023.4 1023.2 0.0
20/10:30am 24.1 25.1 16.4 62 4.7 SSW 6 9 3 5 1023.7 1023.5 0.0
20/10:00am 23.7 24.4 15.7 61 4.8 WSW 6 11 3 6 1023.8 1023.6 0.0
20/09:30am 22.7 23.6 15.0 61 4.6 SSW 4 15 2 8 1024.0 1023.8 0.0
20/09:00am 20.5 21.5 15.3 72 3.1 SW 4 6 2 3 1023.9 1023.7 0.0
20/08:30am 19.6 21.3 15.3 76 2.5 CALM 0 2 0 1 1023.7 1023.5 0.0
20/08:00am 18.4 19.5 14.7 79 2.1 WSW 2 4 1 2 1023.4 1023.2 0.0
20/07:30am 17.0 17.9 14.1 83 1.7 SSE 2 4 1 2 1023.1 1022.9 0.0
20/07:00am 15.9 17.1 13.9 88 1.1 CALM 0 0 0 0 1022.7 1022.5 0.0
20/06:30am 14.3 15.4 13.5 95 0.4 CALM 0 0 0 0 1022.3 1022.1 0.0
20/06:00am 13.9 14.5 13.1 95 0.4 N 2 4 1 2 1021.9 1021.7 0.0
20/05:30am 13.7 14.4 12.3 91 0.8 CALM 0 0 0 0 1021.6 1021.4 0.0
20/05:00am 14.4 14.9 12.8 90 0.9 WNW 2 6 1 3 1021.5 1021.3 0.0
20/04:30am 14.6 15.1 12.8 89 1.0 E 2 4 1 2 1021.0 1020.9 0.0
20/04:00am 15.2 15.3 12.7 85 1.4 E 4 7 2 4 1021.0 1020.9 0.0
20/03:30am 16.2 16.4 13.1 82 1.7 ESE 4 6 2 3 1020.9 1020.8 0.0
20/03:00am 16.3 16.0 13.2 82 1.7 ENE 7 13 4 7 1021.0 1020.9 0.0
20/02:30am 15.7 15.8 12.8 83 1.6 E 4 7 2 4 1021.0 1020.9 0.0
20/02:00am 15.9 15.4 12.8 82 1.7 ENE 7 11 4 6 1021.1 1021.0 0.0
20/01:30am 15.6 15.1 12.5 82 1.7 E 7 9 4 5 1021.0 1020.9 0.0
20/01:00am 16.5 15.9 12.3 76 2.3 E 7 11 4 6 1021.1 1021.0 0.0
20/12:30am 17.4 16.8 12.3 72 2.8 E 7 13 4 7 1021.1 1021.0 0.0
20/12:00am 18.3 17.3 12.3 68 3.3 ENE 9 15 5 8 1021.4 1021.2 0.0
 
Date/Time
EDT
Temp
°C
App
Temp
°C
Dew
Point
°C
Rel
Hum
%
Delta-T
°C
Wind Press
QNH
hPa
Press
MSL
hPa
Rain since
9am
mm
Dir  Spd
km/h
Gust
km/h
Spd
kts
Gust
kts
19/11:30pm 18.3 17.4 12.7 70 3.1 ENE 9 13 5 7 1021.5 1021.3 0.0
19/11:00pm 18.8 18.0 12.8 68 3.4 ENE 9 15 5 8 1021.6 1021.4 0.0
19/10:30pm 18.4 18.2 13.7 74 2.7 E 7 11 4 6 1021.6 1021.4 0.0
19/10:00pm 19.6 18.7 13.8 69 3.3 E 11 15 6 8 1021.5 1021.3 0.0
19/09:30pm 18.7 18.3 14.0 74 2.7 E 9 15 5 8 1021.1 1021.0 0.0
19/09:00pm 18.6 18.7 13.9 74 2.7 ESE 6 7 3 4 1021.0 1020.9 0.0
19/08:30pm 20.0 20.4 13.7 67 3.6 ESE 4 6 2 3 1020.8 1020.7 0.0
19/08:00pm 21.6 21.6 13.5 60 4.7 SE 6 9 3 5 1020.8 1020.7 0.0
19/07:30pm 22.5 22.8 14.4 60 4.8 SE 6 11 3 6 1020.7 1020.6 0.0
19/07:00pm 23.5 23.3 14.8 58 5.2 SE 9 13 5 7 1020.4 1020.3 0.0
19/06:30pm 24.2 24.2 15.1 56 5.5 SSE 9 15 5 8 1020.2 1020.1 0.0
19/06:00pm 24.5 23.6 14.9 55 5.8 S 13 20 7 11 1020.0 1019.9 0.0
19/05:30pm 25.1 24.3 16.0 57 5.6 S 15 24 8 13 1020.0 1019.9 0.0
19/05:00pm 25.5 25.2 16.4 57 5.6 S 13 20 7 11 1019.9 1019.8 0.0
19/04:30pm 24.7 24.5 16.7 61 5.0 S 13 19 7 10 1019.8 1019.7 0.0
19/04:00pm 26.0 26.6 16.8 57 5.7 S 9 17 5 9 1019.8 1019.7 0.0
19/03:30pm 26.3 26.7 15.4 51 6.6 SE 7 17 4 9 1020.0 1019.9 0.0
19/03:00pm 26.6 27.5 16.2 52 6.4 SSE 6 13 3 7 1020.2 1020.1 0.0
19/02:30pm 26.4 26.1 15.4 50 6.7 SSE 11 17 6 9 1020.6 1020.5 0.0
19/02:00pm 25.9 26.1 14.7 50 6.7 S 7 19 4 10 1020.7 1020.6 0.0
19/01:30pm 26.1 26.7 15.8 53 6.3 SSE 7 15 4 8 1020.7 1020.6 0.0
19/01:00pm 25.5 26.3 14.9 52 6.4 E 4 6 2 3 1021.0 1020.9 0.0
19/12:30pm 26.4 27.8 15.4 50 6.7 SE 2 4 1 2 1021.4 1021.2 0.0
19/12:00pm 25.0 25.3 14.5 52 6.3 NNW 6 9 3 5 1021.6 1021.4 0.0
19/11:30am 23.9 24.8 15.1 58 5.3 W 4 7 2 4 1021.9 1021.7 0.0
19/11:00am 24.7 25.8 15.6 57 5.5 SW 4 7 2 4 1021.8 1021.6 0.0
19/10:30am 22.7 23.9 15.8 65 4.2 SSW 4 7 2 4 1021.7 1021.5 0.0
19/10:00am 21.9 23.3 16.4 71 3.3 SSW 4 7 2 4 1021.6 1021.4 0.0
19/09:30am 20.9 22.2 16.1 74 2.9 W 4 6 2 3 1021.6 1021.4 0.0
19/09:00am 20.2 21.7 15.8 76 2.6 NW 2 4 1 2 1021.5 1021.3 0.0
19/08:30am 18.7 20.2 15.6 82 1.8 W 2 4 1 2 1021.2 1021.1 0.0
19/08:00am 17.4 18.4 15.4 88 1.2 NW 4 6 2 3 1020.8 1020.7 0.0
19/07:30am 15.9 17.8 15.7 99 0.1 CALM 0 6 0 3 1020.4 1020.3 0.0
19/07:00am 14.1 15.3 13.9 99 0.1 CALM 0 0 0 0 1020.1 1020.0 0.0
19/06:30am 13.4 14.5 13.4 100 0.0 CALM 0 0 0 0 1019.7 1019.6 0.0
19/06:00am 12.6 13.3 12.3 98 0.2 CALM 0 0 0 0 1019.5 1019.4 0.0
19/05:30am 13.1 14.0 12.8 98 0.2 CALM 0 0 0 0 1019.4 1019.3 0.0
19/05:00am 13.5 14.5 13.2 98 0.2 CALM 0 4 0 2 1019.2 1019.1 0.0
19/04:30am 13.6 14.6 13.1 97 0.3 CALM 0 0 0 0 1018.9 1018.7 0.0
19/04:00am 14.3 15.5 13.7 96 0.3 CALM 0 0 0 0 1018.7 1018.5 0.0
19/03:30am 14.5 15.7 13.9 96 0.3 CALM 0 0 0 0 1018.5 1018.3 0.0
19/03:00am 15.0 15.6 14.2 95 0.5 W 4 4 2 2 1018.7 1018.5 0.0
19/02:30am 14.9 16.1 13.9 94 0.6 CALM 0 0 0 0 1018.8 1018.6 0.0
19/02:00am 15.1 16.4 14.1 94 0.6 CALM 0 0 0 0 1018.8 1018.6 0.0
19/01:30am 15.0 15.9 13.9 93 0.6 WSW 2 2 1 1 1018.7 1018.5 0.0
19/01:00am 15.5 16.2 13.5 88 1.1 W 2 4 1 2 1018.6 1018.4 0.0
19/12:30am 16.3 16.9 14.3 88 1.1 NE 4 7 2 4 1018.7 1018.5 0.0
19/12:00am 17.6 17.8 14.7 83 1.7 NE 7 9 4 5 1018.6 1018.4 0.0
 
Date/Time
EDT
Temp
°C
App
Temp
°C
Dew
Point
°C
Rel
Hum
%
Delta-T
°C
Wind Press
QNH
hPa
Press
MSL
hPa
Rain since
9am
mm
Dir  Spd
km/h
Gust
km/h
Spd
kts
Gust
kts
18/11:30pm 17.0 17.4 14.8 87 1.3 NE 6 9 3 5 1018.4 1018.2 0.0
18/11:00pm 17.3 18.9 14.9 86 1.4 CALM 0 0 0 0 1018.4 1018.2 0.0
18/10:30pm 17.5 19.1 15.0 85 1.5 CALM 0 0 0 0 1018.2 1018.0 0.0
18/10:00pm 18.8 19.9 15.5 81 2.0 W 4 6 2 3 1018.2 1018.0 0.0
18/09:30pm 18.6 20.0 15.5 82 1.8 NW 2 6 1 3 1017.7 1017.5 0.0
18/09:00pm 18.8 20.6 15.5 81 2.0 CALM 0 0 0 0 1017.4 1017.2 0.0
18/08:30pm 19.8 21.5 15.2 75 2.7 CALM 0 0 0 0 1017.2 1017.0 0.0
18/08:00pm 20.7 22.7 15.9 74 2.9 CALM 0 0 0 0 1016.9 1016.7 0.0
18/07:30pm 21.5 23.3 15.6 69 3.5 CALM 0 0 0 0 1016.6 1016.4 0.0
18/07:00pm 21.9 23.6 15.3 66 3.9 CALM 0 4 0 2 1016.6 1016.4 0.0
18/06:30pm 22.4 23.1 15.7 66 4.0 W 6 9 3 5 1016.3 1016.1 0.0
18/06:00pm 22.7 22.8 14.5 60 4.9 N 7 13 4 7 1016.1 1015.9 0.0
18/05:30pm 23.5 23.7 14.2 56 5.5 N 6 11 3 6 1016.0 1015.8 0.0
18/05:00pm 24.2 24.5 15.1 56 5.5 ENE 7 11 4 6 1015.7 1015.5 0.0
18/04:30pm 24.0 22.5 13.2 50 6.3 ENE 13 17 7 9 1015.7 1015.5 0.0
18/04:00pm 25.0 22.6 12.6 46 7.2 ENE 17 24 9 13 1015.9 1015.7 0.0
18/03:30pm 28.0 26.4 13.9 42 8.5 ESE 15 24 8 13 1015.5 1015.3 0.0
18/03:00pm 28.1 26.3 13.2 39 8.8 ESE 15 22 8 12 1015.7 1015.5 0.0
18/02:30pm 27.3 24.9 12.5 40 8.7 ESE 17 26 9 14 1016.2 1016.0 0.0
18/02:00pm 26.5 25.8 14.3 47 7.3 ESE 11 20 6 11 1016.3 1016.1 0.0
18/01:30pm 26.4 24.3 13.5 45 7.6 ESE 17 24 9 13 1016.3 1016.1 0.0
18/01:00pm 25.6 23.9 13.5 47 7.1 E 15 26 8 14 1016.8 1016.6 0.0
18/12:30pm 26.3 25.1 15.0 49 6.8 ESE 15 24 8 13 1017.0 1016.8 0.0
18/12:00pm 25.6 24.1 15.3 53 6.2 E 17 26 9 14 1017.0 1016.8 0.0
18/11:30am 24.9 23.8 15.2 54 5.9 ESE 15 22 8 12 1017.3 1017.1 0.0
18/11:00am 24.4 23.6 15.1 56 5.6 E 13 19 7 10 1017.3 1017.1 0.0
18/10:30am 23.0 22.6 15.1 61 4.7 E 11 17 6 9 1017.2 1017.0 0.0
18/10:00am 21.8 21.5 15.4 67 3.8 ESE 11 15 6 8 1017.4 1017.2 0.0
18/09:30am 20.7 20.2 14.8 69 3.5 ESE 11 15 6 8 1017.6 1017.4 0.0
18/09:00am 19.1 18.3 14.1 73 2.9 E 11 17 6 9 1017.8 1017.6 3.0
18/08:30am 17.9 16.8 14.4 80 2.0 E 13 20 7 11 1017.5 1017.3 3.0
18/08:00am 16.9 16.2 14.4 85 1.4 ENE 11 17 6 9 1017.4 1017.2 3.0
18/07:30am 16.0 15.9 14.0 88 1.1 E 7 9 4 5 1017.3 1017.1 3.0
18/07:00am 14.5 14.6 14.0 97 0.3 E 6 13 3 7 1017.0 1016.8 3.0
18/06:30am 13.9 14.3 13.7 99 0.1 NE 4 6 2 3 1016.7 1016.5 3.0
18/06:00am 13.3 13.5 13.1 99 0.1 E 4 4 2 2 1016.3 1016.1 3.0
18/05:30am 12.2 11.6 11.7 97 0.3 E 6 7 3 4 1016.0 1015.8 3.0
18/05:00am 13.5 14.1 13.0 97 0.3 ENE 2 6 1 3 1015.8 1015.6 3.0
18/04:30am 13.8 14.1 13.3 97 0.3 NE 4 7 2 4 1015.4 1015.2 3.0
18/04:00am 14.2 14.2 13.7 97 0.3 NNE 6 7 3 4 1015.4 1015.2 3.0
18/03:30am 14.5 14.6 14.0 97 0.3 NE 6 9 3 5 1015.3 1015.1 3.0
18/03:00am 14.2 15.3 13.4 95 0.4 CALM 0 2 0 1 1014.9 1014.7 3.0
18/02:30am 14.7 15.9 13.7 94 0.6 CALM 0 4 0 2 1014.7 1014.5 3.0
18/02:00am 14.9 15.3 13.6 92 0.7 E 4 6 2 3 1014.7 1014.5 3.0
18/01:30am 15.4 15.5 13.9 91 0.8 ESE 6 9 3 5 1014.4 1014.2 3.0
18/01:00am 15.6 16.1 14.0 90 0.9 E 4 7 2 4 1014.3 1014.1 3.0
18/12:30am 16.3 16.0 14.5 89 1.0 E 9 15 5 8 1014.4 1014.2 3.0
18/12:00am 14.9 14.8 13.4 91 0.8 ESE 6 9 3 5 1014.3 1014.1 3.0
 
Date/Time
EDT
Temp
°C
App
Temp
°C
Dew
Point
°C
Rel
Hum
%
Delta-T
°C
Wind Press
QNH
hPa
Press
MSL
hPa
Rain since
9am
mm
Dir  Spd
km/h
Gust
km/h
Spd
kts
Gust
kts
17/11:30pm 15.3 15.6 13.3 88 1.1 NW 4 6 2 3 1013.7 1013.5 3.0
17/11:00pm 15.8 15.7 13.3 85 1.4 NE 6 7 3 4 1014.0 1013.8 3.0
17/10:30pm 16.9 16.5 14.0 83 1.7 E 9 15 5 8 1013.8 1013.6 3.0
17/10:00pm 16.9 16.0 13.8 82 1.8 E 11 19 6 10 1013.6 1013.4 3.0
17/09:30pm 15.8 16.2 13.6 87 1.2 E 4 11 2 6 1013.2 1013.1 3.0
17/09:00pm 16.6 16.8 13.1 80 2.0 ESE 4 9 2 5 1013.4 1013.3 3.0
17/08:30pm 17.2 16.9 13.3 78 2.2 E 7 13 4 7 1013.3 1013.2 3.0
17/08:00pm 17.8 17.1 13.1 74 2.7 ESE 9 13 5 7 1013.3 1013.2 3.0
17/07:30pm 19.3 17.9 13.5 69 3.3 E 13 24 7 13 1013.3 1013.2 3.0
17/07:00pm 19.7 18.1 12.9 65 3.9 E 13 19 7 10 1013.2 1013.1 3.0
17/06:30pm 20.2 19.2 12.4 61 4.4 E 9 13 5 7 1013.0 1012.9 3.0
17/06:00pm 20.1 18.7 12.1 60 4.5 ESE 11 15 6 8 1013.1 1013.0 3.0
17/05:30pm 19.5 18.0 11.8 61 4.3 E 11 17 6 9 1013.7 1013.5 3.0
17/05:00pm 20.6 20.6 12.3 59 4.7 W 4 6 2 3 1013.8 1013.6 3.0
17/04:30pm 19.3 17.7 12.8 66 3.7 NE 13 20 7 11 1013.0 1012.9 3.0
17/04:00pm 17.9 16.2 12.6 71 3.0 ESE 13 17 7 9 1013.1 1013.0 3.0
17/03:30pm 19.1 18.6 15.8 81 2.0 E 13 20 7 11 1013.2 1013.1 3.0
17/03:00pm 20.3 20.5 16.7 80 2.2 E 11 17 6 9 1013.4 1013.3 3.0
17/02:30pm 20.4 21.5 17.0 81 2.1 NE 7 9 4 5 1012.5 1012.3 3.0
17/02:00pm 19.1 20.6 17.6 91 0.9 NNE 6 7 3 4 1013.8 1013.6 3.0
17/01:30pm 18.6 21.0 17.1 91 0.9 CALM 0 2 0 1 1013.8 1013.6 2.8

Other Formats:

Comma delimited format used in spreadsheet applications
http://www.bom.gov.au/fwo/IDV60801/IDV60801.99806.axf

JavaScript Object Notation format (JSON) in row-major order
http://www.bom.gov.au/fwo/IDV60801/IDV60801.99806.json